createdAt,value
2022-12-22T00:00:23.862Z,15.650
2022-12-22T00:01:26.506Z,16.650
2022-12-22T00:02:23.162Z,18.500
2022-12-22T00:03:25.694Z,19.050
2022-12-22T00:04:27.605Z,15.800
2022-12-22T00:05:36.513Z,18.650
2022-12-22T00:06:29.604Z,20.000
2022-12-22T00:07:28.543Z,18.700
2022-12-22T00:08:32.857Z,19.500
2022-12-22T00:09:26.492Z,17.600
2022-12-22T00:10:31.971Z,17.500
2022-12-22T00:11:24.621Z,18.750
2022-12-22T00:12:35.075Z,18.100
2022-12-22T00:13:21.567Z,18.300
2022-12-22T00:14:24.272Z,18.600
2022-12-22T00:15:20.563Z,16.100
2022-12-22T00:16:23.699Z,17.750
2022-12-22T00:17:26.152Z,17.300
2022-12-22T00:18:25.417Z,19.250
2022-12-22T00:19:32.359Z,16.000
2022-12-22T00:20:23.935Z,16.500
2022-12-22T00:21:25.220Z,16.450
2022-12-22T00:22:19.293Z,13.450
2022-12-22T00:23:32.836Z,17.000
2022-12-22T00:24:19.751Z,14.800
2022-12-22T00:25:21.938Z,15.500
2022-12-22T00:26:39.170Z,15.200
2022-12-22T00:27:29.006Z,16.650
2022-12-22T00:28:23.662Z,15.000
2022-12-22T00:29:21.949Z,16.450
2022-12-22T00:30:36.681Z,13.400
2022-12-22T00:31:27.663Z,14.000
2022-12-22T00:32:22.087Z,14.400
2022-12-22T00:33:33.750Z,15.050
2022-12-22T00:34:32.691Z,13.150
2022-12-22T00:35:25.638Z,14.400
2022-12-22T00:36:19.593Z,14.850
2022-12-22T00:37:31.269Z,16.000
2022-12-22T00:38:29.705Z,15.100
2022-12-22T00:39:21.612Z,15.200
2022-12-22T00:40:32.578Z,15.300
2022-12-22T00:41:27.291Z,15.100
2022-12-22T00:42:24.164Z,12.200
2022-12-22T00:43:19.548Z,14.550
2022-12-22T00:44:31.912Z,14.800
2022-12-22T00:45:27.919Z,14.950
2022-12-22T00:46:25.411Z,15.600
2022-12-22T00:47:23.319Z,15.600
2022-12-22T00:48:28.127Z,17.850
2022-12-22T00:49:23.456Z,15.400
2022-12-22T00:50:20.299Z,14.950
2022-12-22T00:51:43.344Z,14.200
2022-12-22T00:52:33.257Z,16.100
2022-12-22T00:53:22.333Z,13.600
2022-12-22T00:54:22.562Z,14.000
2022-12-22T00:55:19.589Z,14.900
2022-12-22T00:56:24.930Z,12.400
2022-12-22T00:57:35.206Z,14.950
2022-12-22T00:58:32.367Z,17.500
2022-12-22T00:59:27.077Z,14.800
2022-12-22T01:00:21.115Z,12.300
2022-12-22T01:01:26.089Z,15.550
2022-12-22T01:02:23.869Z,11.550
2022-12-22T01:03:24.484Z,12.800
2022-12-22T01:04:19.483Z,11.200
2022-12-22T01:05:29.921Z,13.800
2022-12-22T01:06:27.527Z,13.700
2022-12-22T01:07:22.642Z,14.700
2022-12-22T01:08:34.883Z,11.700
2022-12-22T01:09:24.452Z,14.450
2022-12-22T01:10:23.293Z,12.700
2022-12-22T01:11:21.790Z,10.500
2022-12-22T01:12:31.258Z,11.400
2022-12-22T01:13:25.863Z,11.800
2022-12-22T01:14:27.457Z,13.800
2022-12-22T01:15:36.730Z,12.050
2022-12-22T01:16:29.391Z,12.700
2022-12-22T01:17:21.505Z,10.900
2022-12-22T01:18:20.915Z,12.150
2022-12-22T01:19:29.611Z,13.300
2022-12-22T01:20:28.377Z,13.000
2022-12-22T01:21:21.288Z,11.200
2022-12-22T01:22:33.314Z,10.800
2022-12-22T01:23:27.325Z,10.100
2022-12-22T01:24:25.322Z,10.750
2022-12-22T01:25:19.189Z,11.500
2022-12-22T01:26:35.179Z,12.100
2022-12-22T01:27:26.489Z,11.850
2022-12-22T01:28:24.577Z,12.100
2022-12-22T01:29:34.738Z,10.650
2022-12-22T01:30:27.951Z,8.800
2022-12-22T01:31:29.317Z,12.200
2022-12-22T01:32:21.488Z,11.300
2022-12-22T01:33:20.317Z,9.050
2022-12-22T01:34:26.953Z,10.650
2022-12-22T01:35:21.775Z,10.750
2022-12-22T01:36:21.997Z,10.800
2022-12-22T01:37:29.854Z,10.150
2022-12-22T01:38:23.627Z,11.300
2022-12-22T01:39:26.905Z,9.700
2022-12-22T01:40:24.186Z,11.000
2022-12-22T01:41:25.620Z,13.300
2022-12-22T01:42:21.649Z,11.400
2022-12-22T01:43:26.757Z,10.700
2022-12-22T01:44:28.633Z,11.900
2022-12-22T01:45:24.222Z,12.300
2022-12-22T01:46:21.335Z,10.700
2022-12-22T01:47:22.086Z,8.950
2022-12-22T01:48:21.412Z,9.400
2022-12-22T01:49:22.183Z,10.500
2022-12-22T01:50:28.834Z,9.800
2022-12-22T01:51:29.315Z,10.700
2022-12-22T01:52:23.457Z,11.850
2022-12-22T01:53:21.262Z,10.900
2022-12-22T01:54:26.269Z,11.950
2022-12-22T01:55:40.220Z,11.600
2022-12-22T01:56:23.330Z,9.700
2022-12-22T01:57:34.243Z,8.800
2022-12-22T01:58:28.969Z,9.900
2022-12-22T01:59:25.072Z,8.750
2022-12-22T02:00:25.492Z,11.500
2022-12-22T02:01:38.599Z,11.800
2022-12-22T02:02:34.342Z,11.050
2022-12-22T02:08:37.871Z,9.800
2022-12-22T02:09:27.247Z,12.200
2022-12-22T02:10:27.355Z,11.950
2022-12-22T02:12:01.394Z,12.500
2022-12-22T02:12:26.091Z,9.550
2022-12-22T02:13:27.012Z,10.800
2022-12-22T02:17:25.701Z,11.400
2022-12-22T02:18:24.375Z,10.850
2022-12-22T02:19:27.725Z,11.100
2022-12-22T02:20:23.864Z,10.700
2022-12-22T02:21:20.608Z,10.300
2022-12-22T02:22:31.388Z,10.150
2022-12-22T02:23:22.587Z,10.900
2022-12-22T02:24:29.429Z,9.300
2022-12-22T02:25:20.985Z,10.000
2022-12-22T02:26:23.453Z,12.200
2022-12-22T02:27:23.991Z,9.750
2022-12-22T02:28:19.892Z,11.100
2022-12-22T02:29:31.282Z,10.300
2022-12-22T02:30:25.643Z,10.100
2022-12-22T02:31:23.105Z,10.400
2022-12-22T02:32:25.197Z,11.500
2022-12-22T02:33:27.504Z,11.100
2022-12-22T02:34:19.964Z,11.250
2022-12-22T02:35:19.763Z,13.700
2022-12-22T02:36:30.823Z,13.600
2022-12-22T02:37:28.987Z,13.250
2022-12-22T02:38:21.710Z,12.400
2022-12-22T02:39:34.738Z,11.600
2022-12-22T02:40:22.322Z,10.000
2022-12-22T02:41:23.669Z,11.600
2022-12-22T02:42:19.652Z,10.750
2022-12-22T02:43:29.423Z,10.100
2022-12-22T02:44:26.677Z,12.100
2022-12-22T02:45:21.707Z,11.550
2022-12-22T02:46:32.367Z,9.900
2022-12-22T02:47:28.629Z,11.800
2022-12-22T02:48:27.177Z,13.350
2022-12-22T02:49:20.722Z,10.900
2022-12-22T02:50:31.299Z,9.600
2022-12-22T02:51:25.406Z,11.800
2022-12-22T02:52:23.636Z,13.400
2022-12-22T02:53:34.241Z,10.950
2022-12-22T02:54:30.055Z,10.100
2022-12-22T02:55:23.450Z,11.100
2022-12-22T02:56:20.729Z,12.000
2022-12-22T02:57:29.872Z,10.550
2022-12-22T02:58:27.041Z,9.700
2022-12-22T02:59:24.027Z,10.400
2022-12-22T03:00:33.313Z,10.700
2022-12-22T03:01:29.322Z,11.950
2022-12-22T03:02:23.524Z,11.200
2022-12-22T03:03:21.134Z,12.150
2022-12-22T03:04:21.979Z,14.750
2022-12-22T03:05:26.903Z,14.500
2022-12-22T03:06:21.485Z,10.550
2022-12-22T03:07:31.702Z,13.800
2022-12-22T03:08:29.710Z,14.300
2022-12-22T03:09:23.988Z,13.200
2022-12-22T03:10:24.692Z,12.550
2022-12-22T03:11:26.131Z,12.800
2022-12-22T03:12:26.219Z,12.800
2022-12-22T03:13:21.448Z,12.250
2022-12-22T03:14:32.364Z,12.200
2022-12-22T03:15:30.075Z,12.300
2022-12-22T03:16:23.993Z,11.500
2022-12-22T03:17:19.390Z,14.100
2022-12-22T03:18:22.395Z,13.700
2022-12-22T03:19:25.811Z,11.450
2022-12-22T03:20:22.255Z,11.300
2022-12-22T03:21:21.377Z,10.300
2022-12-22T03:22:29.258Z,11.700
2022-12-22T03:23:23.791Z,10.100
2022-12-22T03:24:21.222Z,11.000
2022-12-22T03:25:24.843Z,9.550
2022-12-22T03:26:27.777Z,11.100
2022-12-22T03:27:23.285Z,10.950
2022-12-22T03:28:23.188Z,9.550
2022-12-22T03:29:25.974Z,9.000
2022-12-22T03:30:23.791Z,10.850
2022-12-22T03:31:20.893Z,10.600
2022-12-22T03:32:32.588Z,9.650
2022-12-22T03:33:21.963Z,10.150
2022-12-22T03:34:21.752Z,8.700
2022-12-22T03:35:28.460Z,9.200
2022-12-22T03:36:27.609Z,9.650
2022-12-22T03:37:25.404Z,8.000
2022-12-22T03:38:19.794Z,8.050
2022-12-22T03:39:21.228Z,9.400
2022-12-22T03:40:22.570Z,9.450
2022-12-22T03:41:22.001Z,8.800
2022-12-22T03:42:22.025Z,11.500
2022-12-22T03:43:27.584Z,7.800
2022-12-22T03:44:23.563Z,8.300
2022-12-22T03:45:20.057Z,8.400
2022-12-22T03:46:26.381Z,9.050
2022-12-22T03:47:27.337Z,8.350
2022-12-22T03:48:22.697Z,7.700
2022-12-22T03:49:26.108Z,8.800
2022-12-22T03:50:27.569Z,7.250
2022-12-22T03:51:23.487Z,7.400
2022-12-22T03:52:19.635Z,8.400
2022-12-22T03:53:30.969Z,7.900
2022-12-22T03:54:25.503Z,6.500
2022-12-22T03:55:24.349Z,6.950
2022-12-22T03:56:19.768Z,7.250
2022-12-22T03:57:23.676Z,7.000
2022-12-22T03:58:23.150Z,7.850
2022-12-22T03:59:19.680Z,8.000
2022-12-22T04:00:30.961Z,7.850
2022-12-22T04:01:25.794Z,7.550
2022-12-22T04:02:21.635Z,6.500
2022-12-22T04:03:25.828Z,6.550
2022-12-22T04:04:27.870Z,7.800
2022-12-22T04:05:23.704Z,7.700
2022-12-22T04:06:19.516Z,9.100
2022-12-22T04:07:33.059Z,6.600
2022-12-22T04:08:27.210Z,6.400
2022-12-22T04:09:22.189Z,7.100
2022-12-22T04:10:28.055Z,7.100
2022-12-22T04:11:21.033Z,7.050
2022-12-22T04:12:24.971Z,7.000
2022-12-22T04:13:20.191Z,6.250
2022-12-22T04:14:31.340Z,8.200
2022-12-22T04:15:27.380Z,6.700
2022-12-22T04:16:21.486Z,8.050
2022-12-22T04:17:45.883Z,7.100
2022-12-22T04:18:25.455Z,6.200
2022-12-22T04:19:24.669Z,7.600
2022-12-22T04:20:19.434Z,7.400
2022-12-22T04:21:32.360Z,6.500
2022-12-22T04:22:26.396Z,8.500
2022-12-22T04:23:24.106Z,6.700
2022-12-22T04:24:33.813Z,6.850
2022-12-22T04:25:22.004Z,7.100
2022-12-22T04:26:23.487Z,7.950
2022-12-22T04:27:19.410Z,7.300
2022-12-22T04:28:21.793Z,6.050
2022-12-22T04:29:25.854Z,5.900
2022-12-22T04:30:21.832Z,7.800
2022-12-22T04:31:28.685Z,6.700
2022-12-22T04:32:27.824Z,6.450
2022-12-22T04:33:25.895Z,8.000
2022-12-22T04:34:20.541Z,6.250
2022-12-22T04:35:23.993Z,7.400
2022-12-22T04:36:26.345Z,6.000
2022-12-22T04:37:22.477Z,5.600
2022-12-22T04:38:31.533Z,6.400
2022-12-22T04:39:27.634Z,7.200
2022-12-22T04:40:23.691Z,5.950
2022-12-22T04:41:23.875Z,6.100
2022-12-22T04:42:26.313Z,6.050
2022-12-22T04:43:21.049Z,5.750
2022-12-22T04:44:22.329Z,5.900
2022-12-22T04:45:33.519Z,5.850
2022-12-22T04:46:27.918Z,6.100
2022-12-22T04:47:24.011Z,6.300
2022-12-22T04:48:19.721Z,5.300
2022-12-22T04:49:20.705Z,7.200
2022-12-22T04:50:26.839Z,5.500
2022-12-22T04:51:21.870Z,5.900
2022-12-22T04:52:33.422Z,5.850
2022-12-22T04:53:21.244Z,5.700
2022-12-22T04:54:24.754Z,6.700
2022-12-22T04:55:20.215Z,5.500
2022-12-22T04:56:25.066Z,6.800
2022-12-22T04:57:26.564Z,6.550
2022-12-22T04:58:22.821Z,5.900
2022-12-22T04:59:28.124Z,5.250
2022-12-22T05:00:29.672Z,5.950
2022-12-22T05:01:23.800Z,6.350
2022-12-22T05:02:21.537Z,6.500
2022-12-22T05:03:33.439Z,6.500
2022-12-22T05:04:23.806Z,6.700
2022-12-22T05:05:23.396Z,7.100
2022-12-22T05:06:19.786Z,6.300
2022-12-22T05:07:29.283Z,7.100
2022-12-22T05:08:23.508Z,6.400
2022-12-22T05:09:19.623Z,8.250
2022-12-22T05:10:25.110Z,8.100
2022-12-22T05:11:25.499Z,7.850
2022-12-22T05:12:22.466Z,7.400
2022-12-22T05:13:24.940Z,7.000
2022-12-22T05:14:27.848Z,7.250
2022-12-22T05:15:23.567Z,7.500
2022-12-22T05:16:20.440Z,7.800
2022-12-22T05:17:33.806Z,9.650
2022-12-22T05:18:29.221Z,7.050
2022-12-22T05:19:38.742Z,6.500
2022-12-22T05:20:24.538Z,8.900
2022-12-22T05:21:22.937Z,7.850
2022-12-22T05:22:24.045Z,6.650
2022-12-22T05:23:19.536Z,6.300
2022-12-22T05:24:31.977Z,6.950
2022-12-22T05:25:32.880Z,7.150
2022-12-22T05:26:21.897Z,5.700
2022-12-22T05:27:26.935Z,7.600
2022-12-22T05:28:28.785Z,7.400
2022-12-22T05:29:24.478Z,7.500
2022-12-22T05:30:21.555Z,6.400
2022-12-22T05:31:24.413Z,8.400
2022-12-22T05:32:25.848Z,7.700
2022-12-22T05:33:21.983Z,6.800
2022-12-22T05:34:23.744Z,7.550
2022-12-22T05:35:33.095Z,6.700
2022-12-22T05:36:23.727Z,7.150
2022-12-22T05:37:19.848Z,7.400
2022-12-22T05:38:23.897Z,7.100
2022-12-22T05:39:25.735Z,6.850
2022-12-22T05:40:22.086Z,7.400
2022-12-22T05:41:26.923Z,8.100
2022-12-22T05:42:20.338Z,6.200
2022-12-22T05:43:23.730Z,5.900
2022-12-22T05:44:20.532Z,6.500
2022-12-22T05:45:32.733Z,7.050
2022-12-22T05:46:25.867Z,9.800
2022-12-22T05:47:24.363Z,6.750
2022-12-22T05:48:38.006Z,8.250
2022-12-22T05:49:23.443Z,7.800
2022-12-22T05:50:23.847Z,6.750
2022-12-22T05:51:19.854Z,7.000
2022-12-22T05:52:31.227Z,7.300
2022-12-22T05:53:25.624Z,6.800
2022-12-22T05:54:22.480Z,7.100
2022-12-22T05:55:25.056Z,7.650
2022-12-22T05:56:29.323Z,7.200
2022-12-22T05:57:20.619Z,9.400
2022-12-22T05:58:19.767Z,6.800
2022-12-22T05:59:21.647Z,7.900
2022-12-22T06:00:21.403Z,6.850
2022-12-22T06:01:21.657Z,8.200
2022-12-22T06:02:32.105Z,8.500
2022-12-22T06:03:31.908Z,7.400
2022-12-22T06:04:26.088Z,7.350
2022-12-22T06:05:20.562Z,6.600
2022-12-22T06:06:22.877Z,8.300
2022-12-22T06:07:25.690Z,6.250
2022-12-22T06:08:22.266Z,7.800
2022-12-22T06:09:31.890Z,7.450
2022-12-22T06:10:28.035Z,7.500
2022-12-22T06:11:23.813Z,6.700
2022-12-22T06:12:28.399Z,7.800
2022-12-22T06:13:30.474Z,6.650
2022-12-22T06:14:27.092Z,8.000
2022-12-22T06:15:21.653Z,8.500
2022-12-22T06:16:31.988Z,7.400
2022-12-22T06:17:29.445Z,7.350
2022-12-22T06:18:23.508Z,8.600
2022-12-22T06:19:21.540Z,6.650
2022-12-22T06:20:30.964Z,7.600
2022-12-22T06:21:32.287Z,6.700
2022-12-22T06:22:21.523Z,7.100
2022-12-22T06:23:24.800Z,7.500
2022-12-22T06:24:27.972Z,6.800
2022-12-22T06:25:25.158Z,8.500
2022-12-22T06:26:19.588Z,7.050
2022-12-22T06:27:23.368Z,6.950
2022-12-22T06:28:26.631Z,7.800
2022-12-22T06:29:25.952Z,7.950
2022-12-22T06:30:43.006Z,7.950
2022-12-22T06:31:27.974Z,7.500
2022-12-22T06:32:25.873Z,8.500
2022-12-22T06:33:19.524Z,7.250
2022-12-22T06:34:20.840Z,6.400
2022-12-22T06:35:20.676Z,7.050
2022-12-22T06:36:23.125Z,8.300
2022-12-22T06:37:22.954Z,5.600
2022-12-22T06:38:30.344Z,6.800
2022-12-22T06:39:24.149Z,7.600
2022-12-22T06:40:21.670Z,6.750
2022-12-22T06:41:33.402Z,7.350
2022-12-22T06:42:25.828Z,7.400
2022-12-22T06:43:21.874Z,6.850
2022-12-22T06:44:26.328Z,6.800
2022-12-22T06:45:27.720Z,5.000
2022-12-22T06:46:23.924Z,5.550
2022-12-22T06:47:21.539Z,6.500
2022-12-22T06:48:34.633Z,6.000
2022-12-22T06:49:29.231Z,7.450
2022-12-22T06:50:22.052Z,6.400
2022-12-22T06:51:24.214Z,6.700
2022-12-22T06:52:23.583Z,5.550
2022-12-22T06:53:24.052Z,7.800
2022-12-22T06:54:26.067Z,5.900
2022-12-22T06:55:31.465Z,7.500
2022-12-22T06:56:25.703Z,8.200
2022-12-22T06:57:28.957Z,6.850
2022-12-22T06:58:31.602Z,7.550
2022-12-22T06:59:43.801Z,7.300
2022-12-22T07:00:21.876Z,8.700
2022-12-22T07:01:19.940Z,8.450
2022-12-22T07:02:31.931Z,7.200
2022-12-22T07:03:27.538Z,7.700
2022-12-22T07:04:21.704Z,6.700
2022-12-22T07:05:22.120Z,6.750
2022-12-22T07:06:27.701Z,7.850
2022-12-22T07:07:26.299Z,8.000
2022-12-22T07:08:20.329Z,8.450
2022-12-22T07:09:31.382Z,7.700
2022-12-22T07:10:27.423Z,7.000
2022-12-22T07:11:21.693Z,6.650
2022-12-22T07:12:25.707Z,6.450
2022-12-22T07:13:28.120Z,7.000
2022-12-22T07:14:23.826Z,7.200
2022-12-22T07:15:22.513Z,7.300
2022-12-22T07:16:20.594Z,6.300
2022-12-22T07:17:27.857Z,7.000
2022-12-22T07:18:21.595Z,6.800
2022-12-22T07:19:22.674Z,6.300
2022-12-22T07:20:24.503Z,7.150
2022-12-22T07:21:23.522Z,6.800
2022-12-22T07:22:25.650Z,8.300
2022-12-22T07:23:21.014Z,6.450
2022-12-22T07:24:27.995Z,6.300
2022-12-22T07:25:21.582Z,7.200
2022-12-22T07:26:33.943Z,6.400
2022-12-22T07:27:30.121Z,8.200
2022-12-22T07:28:21.245Z,8.350
2022-12-22T07:29:19.602Z,6.100
2022-12-22T07:30:26.274Z,6.250
2022-12-22T07:31:26.072Z,7.700
2022-12-22T07:32:22.304Z,6.500
2022-12-22T07:33:34.469Z,6.700
2022-12-22T07:34:21.041Z,7.000
2022-12-22T07:35:23.462Z,7.000
2022-12-22T07:36:20.960Z,7.850
2022-12-22T07:37:30.929Z,7.150
2022-12-22T07:38:21.164Z,6.800
2022-12-22T07:39:23.608Z,8.600
2022-12-22T07:40:32.067Z,6.900
2022-12-22T07:41:24.546Z,9.200
2022-12-22T07:42:23.845Z,7.750
2022-12-22T07:43:20.599Z,6.400
2022-12-22T07:44:31.530Z,6.700
2022-12-22T07:45:27.047Z,7.350
2022-12-22T07:46:22.343Z,7.650
2022-12-22T07:47:20.408Z,7.600
2022-12-22T07:48:29.363Z,6.700
2022-12-22T07:49:25.317Z,7.100
2022-12-22T07:50:21.302Z,6.950
2022-12-22T07:51:31.377Z,7.300
2022-12-22T07:52:22.089Z,7.100
2022-12-22T07:53:26.122Z,6.450
2022-12-22T07:54:42.027Z,6.450
2022-12-22T07:55:30.899Z,5.900
2022-12-22T07:56:24.223Z,5.900
2022-12-22T07:57:20.665Z,6.350
2022-12-22T07:58:21.878Z,5.850
2022-12-22T07:59:25.776Z,6.900
2022-12-22T08:00:21.880Z,7.100
2022-12-22T08:01:20.105Z,6.800
2022-12-22T08:02:31.089Z,7.100
2022-12-22T08:03:22.398Z,6.900
2022-12-22T08:04:22.802Z,9.800
2022-12-22T08:05:25.974Z,5.800
2022-12-22T08:06:32.675Z,7.550
2022-12-22T08:07:21.800Z,7.800
2022-12-22T08:08:25.741Z,6.250
2022-12-22T08:09:27.646Z,6.750
2022-12-22T08:10:23.781Z,9.400
2022-12-22T08:11:21.551Z,5.750
2022-12-22T08:12:32.724Z,5.900
2022-12-22T08:13:22.622Z,7.500
2022-12-22T08:14:22.561Z,6.800
2022-12-22T08:15:30.964Z,8.400
2022-12-22T08:16:22.112Z,6.600
2022-12-22T08:17:26.276Z,5.800
2022-12-22T08:18:20.925Z,6.900
2022-12-22T08:19:35.349Z,7.350
2022-12-22T08:20:26.718Z,8.900
2022-12-22T08:21:25.909Z,7.250
2022-12-22T08:22:32.733Z,6.000
2022-12-22T08:23:28.049Z,5.400
2022-12-22T08:24:26.006Z,6.600
2022-12-22T08:25:19.775Z,8.700
2022-12-22T08:26:31.537Z,8.100
2022-12-22T08:27:31.805Z,5.300
2022-12-22T08:28:26.077Z,7.400
2022-12-22T08:29:32.021Z,7.250
2022-12-22T08:30:31.814Z,7.100
2022-12-22T08:31:25.981Z,8.100
2022-12-22T08:32:20.736Z,7.700
2022-12-22T08:33:34.196Z,5.700
2022-12-22T08:34:27.831Z,7.900
2022-12-22T08:35:22.250Z,7.500
2022-12-22T08:36:23.185Z,8.900
2022-12-22T08:37:28.207Z,6.750
2022-12-22T08:38:27.147Z,8.200
2022-12-22T08:39:22.005Z,9.100
2022-12-22T08:40:31.534Z,7.200
2022-12-22T08:41:26.021Z,6.400
2022-12-22T08:42:22.191Z,7.900
2022-12-22T08:43:24.637Z,7.450
2022-12-22T08:44:27.880Z,8.800
2022-12-22T08:45:25.579Z,5.700
2022-12-22T08:46:20.292Z,7.900
2022-12-22T08:47:31.776Z,6.100
2022-12-22T08:48:26.261Z,7.300
2022-12-22T08:49:24.347Z,7.800
2022-12-22T08:50:20.219Z,8.700
2022-12-22T08:51:21.671Z,7.400
2022-12-22T08:52:23.566Z,9.500
2022-12-22T08:53:53.924Z,8.800
2022-12-22T08:54:21.428Z,8.900
2022-12-22T08:55:28.519Z,7.000
2022-12-22T08:56:23.330Z,8.400
2022-12-22T08:57:23.409Z,7.500
2022-12-22T08:58:27.840Z,9.200
2022-12-22T08:59:23.888Z,8.850
2022-12-22T09:00:36.118Z,8.700
2022-12-22T09:01:26.303Z,6.700
2022-12-22T09:02:25.951Z,8.300
2022-12-22T09:03:22.090Z,8.550
2022-12-22T09:04:26.577Z,8.400
2022-12-22T09:05:33.896Z,9.250
2022-12-22T09:06:27.650Z,5.900
2022-12-22T09:07:20.152Z,8.250
2022-12-22T09:08:22.818Z,8.050
2022-12-22T09:09:25.799Z,7.400
2022-12-22T09:10:22.224Z,7.300
2022-12-22T09:11:34.699Z,8.000
2022-12-22T09:12:30.379Z,7.600
2022-12-22T09:13:29.268Z,8.400
2022-12-22T09:14:20.672Z,9.600
2022-12-22T09:15:24.392Z,6.850
2022-12-22T09:16:28.613Z,6.800
2022-12-22T09:17:22.447Z,8.550
2022-12-22T09:18:34.742Z,6.900
2022-12-22T09:19:28.378Z,8.000
2022-12-22T09:20:23.750Z,7.950
2022-12-22T09:21:19.929Z,6.800
2022-12-22T09:22:30.118Z,7.550
2022-12-22T09:23:26.704Z,7.550
2022-12-22T09:24:24.693Z,7.450
2022-12-22T09:25:31.935Z,9.100
2022-12-22T09:26:24.304Z,7.800
2022-12-22T09:27:38.950Z,7.500
2022-12-22T09:28:20.901Z,9.100
2022-12-22T09:29:22.252Z,9.200
2022-12-22T09:30:26.750Z,9.050
2022-12-22T09:31:22.338Z,8.450
2022-12-22T09:32:23.880Z,8.900
2022-12-22T09:33:27.155Z,8.700
2022-12-22T09:34:23.636Z,9.450
2022-12-22T09:35:21.120Z,8.100
2022-12-22T09:36:26.925Z,7.600
2022-12-22T09:37:20.340Z,8.550
2022-12-22T09:38:22.358Z,9.400
2022-12-22T09:39:29.542Z,9.000
2022-12-22T09:40:30.547Z,8.550
2022-12-22T09:41:24.746Z,8.400
2022-12-22T09:42:20.817Z,8.550
2022-12-22T09:43:33.849Z,9.000
2022-12-22T09:44:26.094Z,8.200
2022-12-22T09:45:22.789Z,9.500
2022-12-22T09:46:35.727Z,9.750
2022-12-22T09:47:23.257Z,9.700
2022-12-22T09:48:24.802Z,9.150
2022-12-22T09:49:20.164Z,8.150
2022-12-22T09:50:32.568Z,9.900
2022-12-22T09:51:28.575Z,8.900
2022-12-22T09:52:22.077Z,8.500
2022-12-22T09:53:34.400Z,8.950
2022-12-22T09:54:29.470Z,8.600
2022-12-22T09:55:24.259Z,10.350
2022-12-22T09:56:20.820Z,7.600
2022-12-22T09:57:31.884Z,11.200
2022-12-22T09:58:26.761Z,9.000
2022-12-22T09:59:22.577Z,7.650
2022-12-22T10:00:33.184Z,11.450
2022-12-22T10:01:28.305Z,10.300
2022-12-22T10:02:26.557Z,10.300
2022-12-22T10:03:20.890Z,8.450
2022-12-22T10:04:30.551Z,8.800
2022-12-22T10:05:25.929Z,9.200
2022-12-22T10:06:23.217Z,8.750
2022-12-22T10:07:19.711Z,10.000
2022-12-22T10:08:27.836Z,9.600
2022-12-22T10:09:59.090Z,11.050
2022-12-22T10:10:22.130Z,10.600
2022-12-22T10:11:46.267Z,10.150
2022-12-22T10:12:28.405Z,10.600
2022-12-22T10:13:23.308Z,9.300
2022-12-22T10:14:24.419Z,8.500
2022-12-22T10:15:41.784Z,9.400
2022-12-22T10:16:25.377Z,10.400
2022-12-22T10:17:26.195Z,10.400
2022-12-22T10:18:19.285Z,12.400
2022-12-22T10:19:26.523Z,10.000
2022-12-22T10:20:25.929Z,11.400
2022-12-22T10:21:27.419Z,8.800
2022-12-22T10:22:29.473Z,9.700
2022-12-22T10:23:23.825Z,10.100
2022-12-22T10:24:21.727Z,9.600
2022-12-22T10:25:23.819Z,8.900
2022-12-22T10:26:45.651Z,8.000
2022-12-22T10:27:29.681Z,10.500
2022-12-22T10:28:34.258Z,9.600
2022-12-22T10:29:24.517Z,11.550
2022-12-22T10:30:25.229Z,12.900
2022-12-22T10:31:19.710Z,9.800
2022-12-22T10:32:29.158Z,9.800
2022-12-22T10:33:20.930Z,9.950
2022-12-22T10:34:23.202Z,8.300
2022-12-22T10:35:37.200Z,9.250
2022-12-22T10:36:30.126Z,9.600
2022-12-22T10:37:24.474Z,9.300
2022-12-22T10:38:22.210Z,10.750
2022-12-22T10:39:34.006Z,9.650
2022-12-22T10:40:26.213Z,10.800
2022-12-22T10:41:23.552Z,9.450
2022-12-22T10:42:21.862Z,10.200
2022-12-22T10:43:28.022Z,9.000
2022-12-22T10:44:27.406Z,8.950
2022-12-22T10:45:33.055Z,7.750
2022-12-22T10:46:37.366Z,10.500
2022-12-22T10:47:24.803Z,9.700
2022-12-22T10:48:23.704Z,9.000
2022-12-22T10:49:26.008Z,10.100
2022-12-22T10:50:37.784Z,10.850
2022-12-22T10:51:32.770Z,11.000
2022-12-22T10:52:29.679Z,12.100
2022-12-22T10:53:29.845Z,11.450
2022-12-22T10:54:34.095Z,10.500
2022-12-22T10:55:28.655Z,10.350
2022-12-22T10:56:21.919Z,12.300
2022-12-22T10:57:27.945Z,13.400
2022-12-22T10:58:21.765Z,11.300
2022-12-22T10:59:20.776Z,11.250
2022-12-22T11:00:20.528Z,13.100
2022-12-22T11:01:26.675Z,12.300
2022-12-22T11:02:22.338Z,11.950
2022-12-22T11:03:24.725Z,10.300
2022-12-22T11:04:29.235Z,10.800
2022-12-22T11:05:38.749Z,11.100
2022-12-22T11:06:21.564Z,10.800
2022-12-22T11:07:27.188Z,11.350
2022-12-22T11:08:50.876Z,11.550
2022-12-22T11:09:35.781Z,10.600
2022-12-22T11:10:35.074Z,10.800
2022-12-22T11:11:22.416Z,10.800
2022-12-22T11:12:43.445Z,13.300
2022-12-22T11:13:36.405Z,12.500
2022-12-22T11:14:28.316Z,11.700
2022-12-22T11:15:24.814Z,12.800
2022-12-22T11:16:37.461Z,12.800
2022-12-22T11:17:33.233Z,11.900
2022-12-22T11:18:27.197Z,12.300
2022-12-22T11:19:47.236Z,11.450
2022-12-22T11:20:40.282Z,10.400
2022-12-22T11:21:30.859Z,10.600
2022-12-22T11:22:24.968Z,11.700
2022-12-22T11:23:45.177Z,11.700
2022-12-22T11:24:41.208Z,9.700
2022-12-22T11:25:29.166Z,10.600
2022-12-22T11:26:19.691Z,11.700
2022-12-22T11:27:46.085Z,9.000
2022-12-22T11:28:37.063Z,11.100
2022-12-22T11:29:23.786Z,10.300
2022-12-22T11:30:21.367Z,11.000
2022-12-22T11:31:44.035Z,11.900
2022-12-22T11:32:26.035Z,11.700
2022-12-22T11:33:27.670Z,11.300
2022-12-22T11:34:48.149Z,10.200
2022-12-22T11:35:41.002Z,12.700
2022-12-22T11:36:26.524Z,11.600
2022-12-22T11:37:25.715Z,12.250
2022-12-22T11:38:33.039Z,13.000
2022-12-22T11:39:32.503Z,14.700
2022-12-22T11:40:32.244Z,11.700
2022-12-22T11:41:24.734Z,11.350
2022-12-22T11:42:33.056Z,11.200
2022-12-22T11:43:22.661Z,11.600
2022-12-22T11:44:21.457Z,10.050
2022-12-22T11:45:22.686Z,13.150
2022-12-22T11:46:30.088Z,9.400
2022-12-22T11:47:24.209Z,12.450
2022-12-22T11:48:19.859Z,11.200
2022-12-22T11:49:23.124Z,12.250
2022-12-22T11:51:00.964Z,10.800
2022-12-22T11:51:27.272Z,11.000
2022-12-22T11:52:28.063Z,12.500
2022-12-22T11:53:20.634Z,10.900
2022-12-22T11:54:25.223Z,11.900
2022-12-22T11:55:20.412Z,12.150
2022-12-22T11:56:27.041Z,11.900
2022-12-22T11:57:26.073Z,10.900
2022-12-22T11:58:22.190Z,12.950
2022-12-22T11:59:30.421Z,12.300
2022-12-22T12:00:32.767Z,12.900
2022-12-22T12:01:28.331Z,11.200
2022-12-22T12:02:37.094Z,15.000
2022-12-22T12:03:51.111Z,10.950
2022-12-22T12:04:23.979Z,11.100
2022-12-22T12:05:23.253Z,14.500
2022-12-22T12:06:28.699Z,11.000
2022-12-22T12:07:28.361Z,11.450
2022-12-22T12:08:22.064Z,10.900
2022-12-22T12:09:42.741Z,13.000
2022-12-22T12:10:36.050Z,11.900
2022-12-22T12:11:22.249Z,12.800
2022-12-22T12:12:21.983Z,12.700
2022-12-22T12:13:40.056Z,14.500
2022-12-22T12:14:49.776Z,12.100
2022-12-22T12:15:26.113Z,13.000
2022-12-22T12:16:21.148Z,10.900
2022-12-22T12:17:28.189Z,11.700
2022-12-22T12:18:40.074Z,12.100
2022-12-22T12:19:28.617Z,11.000
2022-12-22T12:20:42.628Z,10.600
2022-12-22T12:21:37.018Z,13.050
2022-12-22T12:22:28.749Z,11.200
2022-12-22T12:23:25.317Z,12.200
2022-12-22T12:24:43.529Z,11.600
2022-12-22T12:25:36.774Z,13.650
2022-12-22T12:26:30.145Z,10.900
2022-12-22T12:27:21.912Z,12.700
2022-12-22T12:28:24.148Z,12.750
2022-12-22T12:29:25.081Z,11.950
2022-12-22T12:30:42.708Z,14.000
2022-12-22T12:31:32.872Z,13.900
2022-12-22T12:32:50.159Z,13.000
2022-12-22T12:33:35.316Z,12.200
2022-12-22T12:34:24.188Z,11.900
2022-12-22T12:35:28.292Z,13.000
2022-12-22T12:36:36.468Z,10.900
2022-12-22T12:37:34.445Z,13.850
2022-12-22T12:38:56.888Z,13.500
2022-12-22T12:39:19.411Z,11.700
2022-12-22T12:40:39.803Z,11.600
2022-12-22T12:41:26.873Z,12.600
2022-12-22T12:42:23.578Z,11.150
2022-12-22T12:43:42.269Z,15.200
2022-12-22T12:45:05.858Z,10.000
2022-12-22T12:45:20.928Z,12.250
2022-12-22T12:46:21.614Z,12.100
2022-12-22T12:47:52.134Z,13.800
2022-12-22T12:48:30.230Z,13.300
2022-12-22T12:49:27.687Z,12.650
2022-12-22T12:50:20.721Z,11.300